Time;durP1;ratioP1;P1;durP2;ratioP2;P2;SDS_P1;SDS_P2;PMS_P1;PMS_P2;Temp;Humidity;BMP_temperature;BMP_pressure;BME280_temperature;BME280_humidity;BME280_pressure;Samples;Min_cycle;Max_cycle;Signal;HPM_P1;HPM_P2
2023/04/06 00:01:20;;;;;;;6.67;4.90;;;;;;;;;;5048633;28;20289;-51
2023/04/06 00:03:46;;;;;;;7.33;4.83;;;;;;;;;;5040844;28;20230;-51
2023/04/06 00:06:13;;;;;;;6.10;4.90;;;;;;;;;;5049631;28;20241;-52
2023/04/06 00:08:41;;;;;;;6.43;4.70;;;;;;;;;;5046850;28;20709;-54
2023/04/06 00:11:07;;;;;;;8.00;5.83;;;;;;;;;;5032566;28;20516;-52
2023/04/06 00:13:34;;;;;;;7.70;5.37;;;;;;;;;;5035307;28;20241;-52
2023/04/06 00:16:00;;;;;;;6.70;5.33;;;;;;;;;;5043060;28;20244;-56
2023/04/06 00:18:28;;;;;;;4.83;4.40;;;;;;;;;;5046014;28;20247;-51
2023/04/06 00:20:55;;;;;;;4.83;4.40;;;;;;;;;;5049403;28;20261;-52
2023/04/06 00:23:21;;;;;;;7.83;4.27;;;;;;;;;;5042609;28;20273;-52
2023/04/06 00:25:48;;;;;;;5.20;4.70;;;;;;;;;;5058241;28;20227;-53
2023/04/06 00:28:15;;;;;;;7.20;4.40;;;;;;;;;;5045117;28;20294;-53
2023/04/06 00:30:41;;;;;;;5.43;4.70;;;;;;;;;;5039170;28;20231;-52
2023/04/06 00:33:08;;;;;;;6.23;4.60;;;;;;;;;;5044201;28;20261;-52
2023/04/06 00:35:36;;;;;;;7.13;4.43;;;;;;;;;;5038933;28;20238;-51
2023/04/06 00:38:03;;;;;;;6.33;4.80;;;;;;;;;;5050394;28;20260;-53
2023/04/06 00:40:30;;;;;;;6.03;5.17;;;;;;;;;;5034402;28;20315;-51
2023/04/06 00:42:57;;;;;;;6.37;4.80;;;;;;;;;;5031117;28;20763;-52
2023/04/06 00:45:24;;;;;;;9.57;5.33;;;;;;;;;;5040636;28;20593;-52
2023/04/06 00:47:50;;;;;;;7.37;4.83;;;;;;;;;;5030197;28;20330;-52
2023/04/06 00:50:17;;;;;;;5.10;4.60;;;;;;;;;;5039762;28;20234;-52
2023/04/06 00:52:45;;;;;;;5.97;4.53;;;;;;;;;;5054840;28;20316;-52
2023/04/06 00:55:12;;;;;;;4.83;4.00;;;;;;;;;;5053572;28;20310;-52
2023/04/06 00:57:39;;;;;;;9.60;5.03;;;;;;;;;;5048832;28;20265;-52
2023/04/06 01:00:06;;;;;;;5.63;4.67;;;;;;;;;;5043815;28;20235;-52
2023/04/06 01:02:33;;;;;;;5.77;4.40;;;;;;;;;;5045885;28;20242;-52
2023/04/06 01:05:00;;;;;;;5.30;4.70;;;;;;;;;;5045296;28;20238;-52
2023/04/06 01:07:26;;;;;;;9.97;5.37;;;;;;;;;;5039899;28;20759;-52
2023/04/06 01:09:55;;;;;;;6.10;4.40;;;;;;;;;;5027122;28;20244;-52
2023/04/06 01:12:22;;;;;;;5.23;4.07;;;;;;;;;;5040295;28;20235;-52
2023/04/06 01:14:49;;;;;;;5.53;4.20;;;;;;;;;;5041841;28;20233;-52
2023/04/06 01:17:16;;;;;;;4.97;4.30;;;;;;;;;;5025749;28;20337;-52
2023/04/06 01:19:44;;;;;;;6.30;4.00;;;;;;;;;;5038447;28;20234;-52
2023/04/06 01:22:16;;;;;;;4.20;3.80;;;;;;;;;;5051326;28;20325;-52
2023/04/06 01:24:42;;;;;;;7.03;4.20;;;;;;;;;;5037143;28;20241;-51
2023/04/06 01:27:09;;;;;;;4.63;4.23;;;;;;;;;;5039701;28;20254;-51
2023/04/06 01:29:40;;;;;;;5.67;4.50;;;;;;;;;;5039850;28;20231;-52
2023/04/06 01:32:08;;;;;;;4.03;3.37;;;;;;;;;;5044793;28;20262;-52
2023/04/06 01:34:34;;;;;;;4.57;4.07;;;;;;;;;;5048259;28;20242;-52
2023/04/06 01:37:01;;;;;;;5.33;4.43;;;;;;;;;;5024551;28;20289;-52
2023/04/06 01:39:29;;;;;;;5.20;4.40;;;;;;;;;;5032168;28;20232;-51
2023/04/06 01:41:56;;;;;;;6.53;4.20;;;;;;;;;;5041591;28;20358;-52
2023/04/06 01:44:23;;;;;;;6.33;4.33;;;;;;;;;;5034113;28;20241;-52
2023/04/06 01:46:49;;;;;;;6.77;4.20;;;;;;;;;;5035537;28;20253;-52
2023/04/06 01:49:16;;;;;;;6.57;4.57;;;;;;;;;;5030546;28;20779;-52
2023/04/06 01:51:43;;;;;;;4.50;3.70;;;;;;;;;;5034476;28;20292;-52
2023/04/06 01:54:09;;;;;;;4.77;3.80;;;;;;;;;;5041562;28;20233;-52
2023/04/06 01:56:37;;;;;;;4.40;4.00;;;;;;;;;;5052253;28;20242;-52
2023/04/06 01:59:04;;;;;;;5.07;4.43;;;;;;;;;;5040712;28;20323;-52
2023/04/06 02:01:31;;;;;;;4.83;4.10;;;;;;;;;;5034689;28;20281;-52
2023/04/06 02:03:57;;;;;;;5.87;3.97;;;;;;;;;;5042356;28;20247;-52
2023/04/06 02:06:24;;;;;;;6.27;4.43;;;;;;;;;;5041798;28;20300;-52
2023/04/06 02:08:51;;;;;;;5.17;4.23;;;;;;;;;;5054706;28;20238;-52
2023/04/06 02:11:18;;;;;;;4.93;3.77;;;;;;;;;;5023718;28;20224;-52
2023/04/06 02:13:47;;;;;;;9.33;5.07;;;;;;;;;;5034244;28;20234;-52
2023/04/06 02:16:14;;;;;;;4.40;4.00;;;;;;;;;;5037769;28;20234;-52
2023/04/06 02:18:41;;;;;;;6.77;3.93;;;;;;;;;;5038578;28;20657;-51
2023/04/06 02:21:07;;;;;;;4.30;3.87;;;;;;;;;;5046101;28;20235;-52
2023/04/06 02:23:36;;;;;;;5.37;3.97;;;;;;;;;;5029563;28;20307;-52
2023/04/06 02:26:03;;;;;;;5.77;4.53;;;;;;;;;;5036740;28;20458;-52
2023/04/06 02:28:30;;;;;;;7.33;4.07;;;;;;;;;;5055744;28;20231;-53
2023/04/06 02:30:59;;;;;;;7.60;5.33;;;;;;;;;;5042998;28;20261;-52
2023/04/06 02:33:26;;;;;;;7.27;4.83;;;;;;;;;;5041499;28;20655;-52
2023/04/06 02:35:53;;;;;;;5.93;4.23;;;;;;;;;;5052403;28;20598;-52
2023/04/06 02:38:20;;;;;;;6.60;4.27;;;;;;;;;;5046093;28;20250;-52
2023/04/06 02:40:47;;;;;;;6.53;5.30;;;;;;;;;;5039846;28;20313;-52
2023/04/06 02:43:15;;;;;;;6.70;4.37;;;;;;;;;;5039929;28;20243;-52
2023/04/06 02:45:42;;;;;;;7.97;4.63;;;;;;;;;;5039108;28;20345;-52
2023/04/06 02:48:10;;;;;;;9.10;5.00;;;;;;;;;;5048532;28;20242;-52
2023/04/06 02:50:37;;;;;;;6.70;4.47;;;;;;;;;;5047603;28;20235;-51
2023/04/06 02:53:03;;;;;;;5.37;4.43;;;;;;;;;;5054978;28;20263;-51
2023/04/06 02:55:30;;;;;;;4.77;4.37;;;;;;;;;;5044484;28;20230;-52
2023/04/06 02:57:57;;;;;;;6.80;4.07;;;;;;;;;;5047738;28;20255;-52
2023/04/06 03:00:24;;;;;;;5.77;4.03;;;;;;;;;;5043237;28;20284;-52
2023/04/06 03:02:51;;;;;;;4.63;4.10;;;;;;;;;;5044962;28;20239;-52
2023/04/06 03:05:19;;;;;;;5.97;4.47;;;;;;;;;;5039434;28;20767;-52
2023/04/06 03:07:46;;;;;;;5.97;4.33;;;;;;;;;;5048356;28;20241;-52
2023/04/06 03:10:13;;;;;;;6.10;4.70;;;;;;;;;;5044259;28;20239;-52
2023/04/06 03:12:41;;;;;;;4.63;4.13;;;;;;;;;;5036102;28;20237;-52
2023/04/06 03:15:09;;;;;;;5.57;4.80;;;;;;;;;;5049766;28;20250;-51
2023/04/06 03:17:36;;;;;;;5.47;4.93;;;;;;;;;;5035241;28;20243;-51
2023/04/06 03:20:02;;;;;;;5.87;4.77;;;;;;;;;;5049394;28;20247;-51
2023/04/06 03:22:31;;;;;;;7.43;5.57;;;;;;;;;;5033025;28;20235;-52
2023/04/06 03:24:58;;;;;;;5.60;4.93;;;;;;;;;;5027035;28;20632;-52
2023/04/06 03:27:25;;;;;;;6.07;5.40;;;;;;;;;;5039755;28;20245;-52
2023/04/06 03:29:51;;;;;;;9.47;5.10;;;;;;;;;;5042761;28;20346;-52
2023/04/06 03:32:18;;;;;;;5.43;4.93;;;;;;;;;;5031316;28;20242;-52
2023/04/06 03:34:45;;;;;;;4.83;4.43;;;;;;;;;;5049633;28;20223;-52
2023/04/06 03:37:12;;;;;;;7.87;5.27;;;;;;;;;;5034626;28;20239;-52
2023/04/06 03:39:40;;;;;;;7.87;4.13;;;;;;;;;;5034509;28;20310;-51
2023/04/06 03:42:07;;;;;;;4.97;4.07;;;;;;;;;;5032809;28;20247;-52
2023/04/06 03:44:34;;;;;;;4.70;4.27;;;;;;;;;;5041124;28;20246;-52
2023/04/06 03:47:02;;;;;;;4.80;4.33;;;;;;;;;;5038849;28;20265;-53
2023/04/06 03:49:28;;;;;;;6.70;4.50;;;;;;;;;;5046198;28;20249;-52
2023/04/06 03:51:57;;;;;;;5.07;4.57;;;;;;;;;;5047726;28;20246;-52
2023/04/06 03:54:23;;;;;;;4.60;3.87;;;;;;;;;;5038007;28;20241;-53
2023/04/06 03:56:52;;;;;;;5.90;4.80;;;;;;;;;;5049797;28;20842;-52
2023/04/06 03:59:18;;;;;;;4.67;4.13;;;;;;;;;;5034151;28;20239;-52
2023/04/06 04:01:45;;;;;;;5.67;4.43;;;;;;;;;;5046072;28;20227;-52
2023/04/06 04:04:12;;;;;;;8.90;5.00;;;;;;;;;;5030826;28;20235;-52
2023/04/06 04:06:40;;;;;;;5.30;4.80;;;;;;;;;;5042634;28;20285;-51
2023/04/06 04:09:07;;;;;;;5.27;4.70;;;;;;;;;;5038725;28;20239;-51
2023/04/06 04:11:33;;;;;;;5.33;4.77;;;;;;;;;;5043619;28;20653;-52
2023/04/06 04:14:02;;;;;;;6.23;5.07;;;;;;;;;;5041269;28;20617;-52
2023/04/06 04:16:28;;;;;;;7.57;5.53;;;;;;;;;;5042582;28;20908;-51
2023/04/06 04:18:59;;;;;;;5.20;4.70;;;;;;;;;;5032708;28;20294;-52
2023/04/06 04:21:26;;;;;;;6.30;5.30;;;;;;;;;;5043108;28;20240;-52
2023/04/06 04:23:53;;;;;;;7.43;4.83;;;;;;;;;;5038446;28;20266;-52
2023/04/06 04:26:20;;;;;;;5.47;4.97;;;;;;;;;;5046344;28;20709;-52
2023/04/06 04:28:47;;;;;;;5.17;4.70;;;;;;;;;;5041740;28;20257;-53
2023/04/06 04:31:17;;;;;;;5.73;4.87;;;;;;;;;;5038376;28;20301;-52
2023/04/06 04:33:44;;;;;;;6.57;5.97;;;;;;;;;;5043099;28;20317;-51
2023/04/06 04:36:11;;;;;;;7.90;5.73;;;;;;;;;;5052254;28;20231;-52
2023/04/06 04:38:38;;;;;;;7.10;5.07;;;;;;;;;;5038599;28;20242;-53
2023/04/06 04:41:04;;;;;;;6.73;4.33;;;;;;;;;;5053796;28;20235;-51
2023/04/06 04:43:32;;;;;;;9.43;5.07;;;;;;;;;;5050580;28;20266;-53
2023/04/06 04:45:59;;;;;;;8.20;5.60;;;;;;;;;;5062713;28;20329;-52
2023/04/06 04:48:27;;;;;;;6.53;5.73;;;;;;;;;;5041709;28;20238;-52
2023/04/06 04:50:55;;;;;;;6.07;5.47;;;;;;;;;;5040567;28;20234;-52
2023/04/06 04:53:21;;;;;;;12.20;6.40;;;;;;;;;;5041058;28;20322;-52
2023/04/06 04:55:48;;;;;;;6.73;5.97;;;;;;;;;;5046540;28;20597;-52
2023/04/06 04:58:16;;;;;;;10.37;6.27;;;;;;;;;;5030177;28;20244;-52
2023/04/06 05:00:43;;;;;;;7.53;6.63;;;;;;;;;;5045803;28;20301;-52
2023/04/06 05:03:10;;;;;;;6.50;5.80;;;;;;;;;;5034170;28;20232;-52
2023/04/06 05:05:38;;;;;;;6.93;6.30;;;;;;;;;;5040487;28;20235;-51
2023/04/06 05:08:05;;;;;;;7.47;6.77;;;;;;;;;;5047640;28;20242;-51
2023/04/06 05:10:32;;;;;;;8.43;7.17;;;;;;;;;;5039919;28;20247;-53
2023/04/06 05:12:59;;;;;;;10.20;7.07;;;;;;;;;;5051232;28;20241;-51
2023/04/06 05:15:25;;;;;;;7.43;6.73;;;;;;;;;;5026627;28;20239;-52
2023/04/06 05:17:52;;;;;;;8.23;6.80;;;;;;;;;;5039302;28;20242;-52
2023/04/06 05:20:19;;;;;;;8.10;7.20;;;;;;;;;;5041141;28;20234;-52
2023/04/06 05:22:47;;;;;;;8.67;7.23;;;;;;;;;;5037157;28;20633;-54
2023/04/06 05:25:14;;;;;;;7.03;6.40;;;;;;;;;;5044625;28;20761;-53
2023/04/06 05:27:40;;;;;;;8.30;7.43;;;;;;;;;;5044804;28;20237;-51
2023/04/06 05:30:08;;;;;;;8.63;7.77;;;;;;;;;;5040288;28;20243;-52
2023/04/06 05:32:35;;;;;;;7.77;7.00;;;;;;;;;;5045112;28;20265;-59
2023/04/06 05:35:01;;;;;;;7.87;7.07;;;;;;;;;;5051527;28;20371;-50
2023/04/06 05:37:28;;;;;;;9.47;7.40;;;;;;;;;;5042319;28;20244;-50
2023/04/06 05:39:56;;;;;;;9.17;7.53;;;;;;;;;;5047057;28;20720;-51
2023/04/06 05:42:23;;;;;;;8.60;7.70;;;;;;;;;;5046368;28;20259;-50
2023/04/06 05:44:50;;;;;;;8.07;7.30;;;;;;;;;;5041051;28;20220;-52
2023/04/06 05:47:16;;;;;;;8.57;6.67;;;;;;;;;;5035777;28;20241;-50
2023/04/06 05:49:55;;;;;;;7.77;6.87;;;;;;;;;;5039440;28;20242;-51
2023/04/06 05:52:22;;;;;;;10.20;7.50;;;;;;;;;;5047910;28;20696;-51
2023/04/06 05:54:48;;;;;;;10.00;7.57;;;;;;;;;;5038089;28;20270;-51
2023/04/06 05:57:17;;;;;;;8.17;7.30;;;;;;;;;;5040145;28;20245;-52
2023/04/06 05:59:43;;;;;;;9.07;8.20;;;;;;;;;;5031363;28;20234;-51
2023/04/06 06:02:10;;;;;;;8.47;7.07;;;;;;;;;;5055550;28;20234;-51
2023/04/06 06:04:37;;;;;;;8.40;7.60;;;;;;;;;;5054906;28;20284;-51
2023/04/06 06:07:05;;;;;;;9.87;8.50;;;;;;;;;;5040299;28;20620;-51
2023/04/06 06:09:31;;;;;;;8.70;7.80;;;;;;;;;;5043467;28;20235;-52
2023/04/06 06:11:58;;;;;;;8.30;7.47;;;;;;;;;;5044346;28;20236;-51
2023/04/06 06:14:28;;;;;;;9.17;8.20;;;;;;;;;;5044130;28;20341;-52
2023/04/06 06:16:55;;;;;;;9.80;7.43;;;;;;;;;;5046119;28;20231;-51
2023/04/06 06:19:22;;;;;;;9.30;7.27;;;;;;;;;;5044581;28;20719;-51
2023/04/06 06:21:49;;;;;;;7.80;7.10;;;;;;;;;;5046251;28;20296;-53
2023/04/06 06:24:16;;;;;;;10.67;8.40;;;;;;;;;;5045967;28;20721;-51
2023/04/06 06:26:42;;;;;;;7.93;7.20;;;;;;;;;;5058337;28;20231;-50
2023/04/06 06:29:09;;;;;;;9.53;7.90;;;;;;;;;;5054256;28;20803;-51
2023/04/06 06:31:37;;;;;;;9.37;8.43;;;;;;;;;;5049487;28;20257;-50
2023/04/06 06:34:04;;;;;;;9.97;8.07;;;;;;;;;;5050327;28;20228;-50
2023/04/06 06:36:31;;;;;;;10.87;8.10;;;;;;;;;;5049961;28;20387;-53
2023/04/06 06:38:58;;;;;;;10.10;8.20;;;;;;;;;;5042942;28;20244;-51
2023/04/06 06:41:25;;;;;;;9.67;8.67;;;;;;;;;;5050644;28;20260;-50
2023/04/06 06:43:52;;;;;;;8.93;8.03;;;;;;;;;;5042971;28;20258;-52
2023/04/06 06:46:19;;;;;;;10.53;7.43;;;;;;;;;;5040782;28;20228;-51
2023/04/06 06:48:47;;;;;;;8.27;7.43;;;;;;;;;;5045533;28;20714;-51
2023/04/06 06:51:14;;;;;;;7.67;6.87;;;;;;;;;;5047578;28;20231;-51
2023/04/06 06:53:41;;;;;;;7.20;6.43;;;;;;;;;;5044558;28;20762;-51
2023/04/06 06:56:08;;;;;;;8.23;7.20;;;;;;;;;;5046957;28;20282;-51
2023/04/06 06:58:35;;;;;;;9.47;7.90;;;;;;;;;;5041234;28;20326;-51
2023/04/06 07:01:05;;;;;;;8.27;6.77;;;;;;;;;;5048147;28;20815;-53
2023/04/06 07:03:31;;;;;;;8.63;7.73;;;;;;;;;;5042240;28;20813;-52
2023/04/06 07:06:00;;;;;;;9.17;7.63;;;;;;;;;;5034179;28;20231;-53
2023/04/06 07:08:27;;;;;;;7.83;7.07;;;;;;;;;;5051356;28;20247;-52
2023/04/06 07:10:55;;;;;;;11.50;6.73;;;;;;;;;;5051163;28;20253;-51
2023/04/06 07:13:23;;;;;;;12.27;7.13;;;;;;;;;;5065833;28;21038;-51
2023/04/06 07:15:49;;;;;;;9.73;7.00;;;;;;;;;;5063870;28;20330;-51
2023/04/06 07:18:16;;;;;;;7.13;6.53;;;;;;;;;;5057514;28;20227;-52
2023/04/06 07:20:43;;;;;;;9.00;6.87;;;;;;;;;;5041811;28;20246;-52
2023/04/06 07:23:11;;;;;;;8.03;7.20;;;;;;;;;;5035533;28;20290;-52
2023/04/06 07:25:38;;;;;;;6.80;5.80;;;;;;;;;;5043774;28;20241;-51
2023/04/06 07:28:05;;;;;;;9.33;6.27;;;;;;;;;;5049443;28;20310;-51
2023/04/06 07:30:34;;;;;;;8.43;6.10;;;;;;;;;;5054625;28;20232;-52
2023/04/06 07:33:01;;;;;;;6.70;5.47;;;;;;;;;;5041128;28;20277;-52
2023/04/06 07:35:29;;;;;;;8.03;5.60;;;;;;;;;;5054286;28;20344;-52
2023/04/06 07:37:56;;;;;;;8.00;5.63;;;;;;;;;;5054301;28;20235;-52
2023/04/06 07:40:25;;;;;;;8.13;5.37;;;;;;;;;;5049714;28;20412;-52
2023/04/06 07:42:52;;;;;;;6.37;5.40;;;;;;;;;;5053411;28;20228;-51
2023/04/06 07:45:19;;;;;;;6.07;5.47;;;;;;;;;;5054921;28;20235;-52
2023/04/06 07:47:46;;;;;;;5.83;5.33;;;;;;;;;;5061119;28;20238;-52
2023/04/06 07:50:13;;;;;;;7.00;4.40;;;;;;;;;;5052097;28;20251;-52
2023/04/06 07:52:40;;;;;;;6.77;5.17;;;;;;;;;;5054821;28;20311;-52
2023/04/06 07:55:07;;;;;;;5.47;4.97;;;;;;;;;;5055366;28;20231;-52
2023/04/06 07:57:35;;;;;;;5.13;4.63;;;;;;;;;;5057963;28;20242;-53
2023/04/06 08:00:03;;;;;;;6.13;5.50;;;;;;;;;;5057514;28;20319;-51
2023/04/06 08:02:30;;;;;;;5.30;4.70;;;;;;;;;;5053141;28;20231;-51
2023/04/06 08:04:57;;;;;;;6.00;5.07;;;;;;;;;;5060029;28;20228;-51
2023/04/06 08:07:24;;;;;;;6.60;4.20;;;;;;;;;;5059452;28;20324;-51
2023/04/06 08:09:57;;;;;;;7.30;5.00;;;;;;;;;;5040841;28;20660;-52
2023/04/06 08:12:23;;;;;;;5.23;4.37;;;;;;;;;;5043794;28;20249;-52
2023/04/06 08:14:51;;;;;;;4.97;4.47;;;;;;;;;;5055513;28;20365;-51
2023/04/06 08:17:18;;;;;;;5.60;4.27;;;;;;;;;;5055087;28;20318;-52
2023/04/06 08:19:45;;;;;;;7.00;4.13;;;;;;;;;;5052259;28;20231;-51
2023/04/06 08:22:12;;;;;;;4.37;3.73;;;;;;;;;;5053330;28;20697;-51
2023/04/06 08:24:38;;;;;;;3.87;3.20;;;;;;;;;;5043758;28;20245;-52
2023/04/06 08:27:05;;;;;;;5.10;3.13;;;;;;;;;;5049849;28;20247;-54
2023/04/06 08:29:32;;;;;;;5.60;2.90;;;;;;;;;;5055065;28;20254;-51
2023/04/06 08:32:00;;;;;;;4.10;3.00;;;;;;;;;;5052071;28;20294;-51
2023/04/06 08:34:26;;;;;;;4.93;3.03;;;;;;;;;;5055228;28;20343;-50
2023/04/06 08:36:53;;;;;;;2.53;2.23;;;;;;;;;;5055382;28;20726;-51
2023/04/06 08:39:25;;;;;;;3.73;2.50;;;;;;;;;;5047961;28;20233;-52
2023/04/06 08:41:52;;;;;;;6.07;2.63;;;;;;;;;;5046931;28;20235;-51
2023/04/06 08:44:19;;;;;;;3.40;3.10;;;;;;;;;;5052460;28;20235;-51
2023/04/06 08:46:45;;;;;;;3.27;2.47;;;;;;;;;;5050343;28;20228;-53
2023/04/06 08:49:15;;;;;;;2.33;2.07;;;;;;;;;;5052100;28;20230;-54
2023/04/06 08:51:42;;;;;;;4.00;2.77;;;;;;;;;;5048174;28;20506;-52
2023/04/06 08:54:09;;;;;;;4.37;2.83;;;;;;;;;;5050384;28;20232;-52
2023/04/06 08:56:38;;;;;;;4.37;3.00;;;;;;;;;;5029235;28;20231;-51
2023/04/06 08:59:05;;;;;;;4.17;2.63;;;;;;;;;;5046417;28;20227;-53
2023/04/06 09:01:36;;;;;;;3.87;2.40;;;;;;;;;;5031779;28;20234;-58
2023/04/06 09:04:08;;;;;;;3.00;2.10;;;;;;;;;;5049109;28;20277;-51
2023/04/06 09:06:37;;;;;;;2.30;2.10;;;;;;;;;;5044903;28;20319;-53
2023/04/06 09:09:04;;;;;;;3.00;2.30;;;;;;;;;;5043808;28;20244;-50
2023/04/06 09:11:42;;;;;;;5.97;2.40;;;;;;;;;;5043784;28;20288;-50
2023/04/06 09:14:08;;;;;;;1.93;1.70;;;;;;;;;;5038896;28;20690;-50
2023/04/06 09:16:39;;;;;;;2.30;2.10;;;;;;;;;;5042538;28;20818;-50
2023/04/06 09:19:06;;;;;;;2.43;2.23;;;;;;;;;;5049725;28;20238;-51
2023/04/06 09:21:33;;;;;;;5.37;3.20;;;;;;;;;;5056009;28;20230;-51
2023/04/06 09:24:02;;;;;;;2.10;1.90;;;;;;;;;;5047065;28;20239;-51
2023/04/06 09:26:30;;;;;;;1.63;1.53;;;;;;;;;;5048682;28;20259;-51
2023/04/06 09:28:59;;;;;;;2.27;1.97;;;;;;;;;;5040717;28;20232;-51
2023/04/06 09:31:26;;;;;;;3.17;1.73;;;;;;;;;;5040027;28;20276;-51
2023/04/06 09:33:53;;;;;;;2.00;1.80;;;;;;;;;;5035447;28;20314;-50
2023/04/06 09:36:20;;;;;;;2.27;2.07;;;;;;;;;;5043935;28;20243;-51
2023/04/06 09:38:54;;;;;;;2.70;2.00;;;;;;;;;;5036453;28;20634;-50
2023/04/06 09:41:26;;;;;;;2.93;2.47;;;;;;;;;;5036795;28;20816;-51
2023/04/06 09:43:53;;;;;;;3.03;2.13;;;;;;;;;;5039430;28;20256;-50
2023/04/06 09:46:22;;;;;;;2.90;2.30;;;;;;;;;;5030412;28;20247;-50
2023/04/06 09:48:49;;;;;;;2.30;2.10;;;;;;;;;;5029632;28;20231;-51
2023/04/06 09:51:16;;;;;;;2.23;1.50;;;;;;;;;;5036741;28;20235;-51
2023/04/06 09:53:43;;;;;;;2.63;2.30;;;;;;;;;;5036982;28;20604;-50
2023/04/06 09:56:12;;;;;;;3.03;2.57;;;;;;;;;;5043098;28;20241;-50
2023/04/06 09:58:41;;;;;;;2.60;2.40;;;;;;;;;;5037174;28;20319;-51
2023/04/06 10:01:10;;;;;;;3.90;2.40;;;;;;;;;;5037751;28;20223;-50
2023/04/06 10:03:41;;;;;;;3.00;2.10;;;;;;;;;;5041861;28;20235;-53
2023/04/06 10:06:11;;;;;;;1.92;1.77;;;;;;;;;;5040824;28;20232;-51
2023/04/06 10:08:40;;;;;;;2.87;2.40;;;;;;;;;;5039105;28;20263;-50
2023/04/06 10:11:07;;;;;;;2.35;2.15;;;;;;;;;;5047975;28;20231;-51
2023/04/06 10:13:34;;;;;;;2.50;2.00;;;;;;;;;;5053007;28;20258;-51
2023/04/06 10:16:02;;;;;;;3.22;2.78;;;;;;;;;;5050912;28;20302;-51
2023/04/06 10:18:29;;;;;;;6.35;2.25;;;;;;;;;;5049978;28;20710;-51
2023/04/06 10:20:58;;;;;;;3.90;2.53;;;;;;;;;;5039438;28;20236;-53
2023/04/06 10:23:27;;;;;;;2.20;1.58;;;;;;;;;;5038442;28;20240;-51
2023/04/06 10:25:55;;;;;;;1.85;1.75;;;;;;;;;;5043712;28;20228;-52
2023/04/06 10:28:22;;;;;;;1.50;1.40;;;;;;;;;;5042049;28;20231;-51
2023/04/06 10:30:48;;;;;;;4.47;2.25;;;;;;;;;;5039284;28;20303;-51
2023/04/06 10:33:17;;;;;;;3.20;2.45;;;;;;;;;;5042021;28;20224;-51
2023/04/06 10:35:43;;;;;;;3.45;2.22;;;;;;;;;;5047198;28;20228;-51
2023/04/06 10:38:11;;;;;;;3.70;3.30;;;;;;;;;;5033437;28;20326;-51
2023/04/06 10:40:39;;;;;;;2.80;2.47;;;;;;;;;;5046154;28;20236;-52
2023/04/06 10:43:09;;;;;;;3.63;2.30;;;;;;;;;;5040485;28;20235;-51
2023/04/06 10:45:36;;;;;;;2.67;2.35;;;;;;;;;;5043968;28;20220;-51
2023/04/06 10:48:13;;;;;;;2.10;1.88;;;;;;;;;;5037531;28;20607;-50
2023/04/06 10:50:42;;;;;;;2.75;1.83;;;;;;;;;;5043480;28;20289;-52
2023/04/06 10:53:08;;;;;;;2.55;1.88;;;;;;;;;;5038989;28;20232;-51
2023/04/06 10:55:35;;;;;;;2.25;1.92;;;;;;;;;;5039476;28;20231;-51
2023/04/06 10:58:02;;;;;;;2.90;2.30;;;;;;;;;;5042580;28;20670;-51
2023/04/06 11:00:29;;;;;;;3.42;2.35;;;;;;;;;;5042553;28;20224;-51
2023/04/06 11:03:00;;;;;;;3.45;2.20;;;;;;;;;;5038257;28;20282;-51
2023/04/06 11:05:26;;;;;;;2.22;2.03;;;;;;;;;;5043117;28;20250;-52
2023/04/06 11:07:54;;;;;;;2.38;2.08;;;;;;;;;;5044029;28;20714;-51
2023/04/06 11:10:22;;;;;;;6.43;1.95;;;;;;;;;;5038176;28;20224;-51
2023/04/06 11:12:53;;;;;;;3.33;2.03;;;;;;;;;;5028979;28;20761;-51
2023/04/06 11:15:20;;;;;;;3.70;2.58;;;;;;;;;;5041516;28;20312;-51
2023/04/06 11:17:48;;;;;;;4.05;2.28;;;;;;;;;;5037843;28;20245;-51
2023/04/06 11:20:15;;;;;;;3.63;2.00;;;;;;;;;;5046465;28;20228;-51
2023/04/06 11:22:51;;;;;;;2.40;2.20;;;;;;;;;;5048516;28;20224;-51
2023/04/06 11:25:19;;;;;;;2.23;1.73;;;;;;;;;;5040179;28;20230;-51
2023/04/06 11:27:47;;;;;;;3.65;1.77;;;;;;;;;;5053606;28;20227;-51
2023/04/06 11:30:14;;;;;;;2.85;2.17;;;;;;;;;;5039350;28;20227;-51
2023/04/06 11:32:41;;;;;;;3.00;2.58;;;;;;;;;;5040832;28;20242;-51
2023/04/06 11:35:08;;;;;;;2.42;2.22;;;;;;;;;;5040103;28;20235;-51
2023/04/06 11:37:34;;;;;;;4.10;3.05;;;;;;;;;;5039090;28;20265;-52
2023/04/06 11:40:01;;;;;;;2.42;2.22;;;;;;;;;;5043768;28;20232;-52
2023/04/06 11:42:30;;;;;;;2.55;2.15;;;;;;;;;;5029035;28;20235;-51
2023/04/06 11:44:57;;;;;;;1.80;1.70;;;;;;;;;;5040965;28;20244;-51
2023/04/06 11:47:28;;;;;;;2.15;1.90;;;;;;;;;;5039159;28;20246;-51
2023/04/06 11:49:55;;;;;;;2.58;1.80;;;;;;;;;;5045627;28;20658;-51
2023/04/06 11:52:23;;;;;;;3.47;2.03;;;;;;;;;;5044127;28;20607;-50
2023/04/06 11:54:50;;;;;;;2.95;2.13;;;;;;;;;;5037142;28;20243;-51
2023/04/06 11:57:17;;;;;;;2.47;2.17;;;;;;;;;;5037267;28;20231;-51
2023/04/06 11:59:46;;;;;;;2.20;2.00;;;;;;;;;;5041875;28;20298;-50
2023/04/06 12:02:13;;;;;;;3.97;2.28;;;;;;;;;;5042011;28;20228;-50
2023/04/06 12:04:39;;;;;;;2.67;2.47;;;;;;;;;;5038591;28;20251;-51
2023/04/06 12:07:06;;;;;;;3.65;2.03;;;;;;;;;;5038270;28;20718;-51
2023/04/06 12:09:34;;;;;;;2.92;2.55;;;;;;;;;;5045746;28;20234;-52
2023/04/06 12:12:01;;;;;;;4.95;2.60;;;;;;;;;;5033055;28;20330;-51
2023/04/06 12:14:27;;;;;;;2.38;2.17;;;;;;;;;;5036615;28;20247;-51
2023/04/06 12:16:55;;;;;;;2.50;1.85;;;;;;;;;;5035708;28;20821;-49
2023/04/06 12:19:25;;;;;;;2.55;2.35;;;;;;;;;;5041526;28;20263;-51
2023/04/06 12:21:55;;;;;;;3.20;2.47;;;;;;;;;;5038141;28;20232;-53
2023/04/06 12:24:21;;;;;;;3.05;2.47;;;;;;;;;;5029821;28;20258;-51
2023/04/06 12:26:48;;;;;;;5.30;2.70;;;;;;;;;;5031609;28;20762;-50
2023/04/06 12:29:15;;;;;;;3.08;2.80;;;;;;;;;;5031441;28;20259;-50
2023/04/06 12:31:44;;;;;;;4.70;2.72;;;;;;;;;;5034304;28;20401;-50
2023/04/06 12:34:12;;;;;;;3.15;2.85;;;;;;;;;;5038724;28;20285;-50
2023/04/06 12:36:39;;;;;;;2.72;2.50;;;;;;;;;;5039831;28;20232;-50
2023/04/06 12:39:06;;;;;;;2.45;2.25;;;;;;;;;;5044669;28;20327;-50
2023/04/06 12:41:33;;;;;;;3.00;2.22;;;;;;;;;;5046159;28;20793;-50
2023/04/06 12:44:00;;;;;;;2.65;2.33;;;;;;;;;;5045361;28;20232;-50
2023/04/06 12:46:27;;;;;;;2.15;2.00;;;;;;;;;;5042011;28;20246;-50
2023/04/06 12:48:54;;;;;;;3.05;2.50;;;;;;;;;;5030970;28;20248;-50
2023/04/06 12:51:23;;;;;;;3.10;2.60;;;;;;;;;;5037063;28;20239;-50
2023/04/06 12:53:50;;;;;;;2.72;2.53;;;;;;;;;;5040311;28;20232;-50
2023/04/06 12:56:18;;;;;;;2.85;2.58;;;;;;;;;;5038098;28;20232;-50
2023/04/06 12:58:44;;;;;;;2.90;2.50;;;;;;;;;;5032315;28;20239;-51
2023/04/06 13:01:12;;;;;;;2.63;2.40;;;;;;;;;;5035645;28;20243;-50
2023/04/06 13:03:39;;;;;;;3.58;2.70;;;;;;;;;;5034975;28;20318;-50
2023/04/06 13:06:08;;;;;;;4.70;2.20;;;;;;;;;;5033202;28;20766;-51
2023/04/06 13:08:37;;;;;;;4.55;2.72;;;;;;;;;;5035933;28;20232;-50
2023/04/06 13:11:04;;;;;;;3.28;2.92;;;;;;;;;;5044615;28;20226;-50
2023/04/06 13:13:31;;;;;;;2.28;2.15;;;;;;;;;;5040496;28;21104;-50
2023/04/06 13:16:00;;;;;;;4.40;3.22;;;;;;;;;;5032111;28;20240;-50
2023/04/06 13:18:27;;;;;;;2.42;2.22;;;;;;;;;;5036920;28;20660;-51
2023/04/06 13:20:55;;;;;;;5.13;2.95;;;;;;;;;;5039573;28;20289;-51
2023/04/06 13:23:22;;;;;;;4.05;2.58;;;;;;;;;;5042346;28;20248;-51
2023/04/06 13:25:57;;;;;;;2.70;2.35;;;;;;;;;;5029501;28;20674;-51
2023/04/06 13:28:24;;;;;;;2.72;2.53;;;;;;;;;;5036064;28;20772;-50
2023/04/06 13:30:50;;;;;;;2.95;2.67;;;;;;;;;;5031845;28;20603;-51
2023/04/06 13:33:17;;;;;;;3.05;2.67;;;;;;;;;;5050128;28;20235;-51
2023/04/06 13:35:45;;;;;;;2.92;2.70;;;;;;;;;;5042876;28;20251;-51
2023/04/06 13:38:12;;;;;;;3.22;2.92;;;;;;;;;;5032804;28;20235;-51
2023/04/06 13:40:39;;;;;;;5.95;2.72;;;;;;;;;;5019463;28;20256;-52
2023/04/06 13:43:07;;;;;;;2.60;2.40;;;;;;;;;;5021974;28;20264;-50
2023/04/06 13:45:34;;;;;;;3.05;2.85;;;;;;;;;;5020670;28;20232;-50
2023/04/06 13:48:01;;;;;;;4.63;2.97;;;;;;;;;;5030940;28;20239;-50
2023/04/06 13:50:28;;;;;;;2.75;2.47;;;;;;;;;;5036870;28;20236;-50
2023/04/06 13:52:54;;;;;;;4.40;3.22;;;;;;;;;;5038020;28;20254;-51
2023/04/06 13:55:21;;;;;;;2.97;2.78;;;;;;;;;;5035341;28;20237;-51
2023/04/06 13:57:47;;;;;;;3.00;2.80;;;;;;;;;;5030522;28;20255;-52
2023/04/06 14:00:16;;;;;;;3.22;2.78;;;;;;;;;;5026619;28;20236;-51
2023/04/06 14:02:42;;;;;;;4.65;2.83;;;;;;;;;;5028303;28;20685;-51
2023/04/06 14:05:10;;;;;;;2.63;2.40;;;;;;;;;;5034211;28;20259;-51
2023/04/06 14:07:36;;;;;;;3.75;2.83;;;;;;;;;;5029127;28;20231;-51
2023/04/06 14:10:05;;;;;;;2.92;2.63;;;;;;;;;;5030258;28;20224;-51
2023/04/06 14:12:32;;;;;;;3.90;2.85;;;;;;;;;;5036793;28;20240;-51
2023/04/06 14:14:59;;;;;;;3.80;3.10;;;;;;;;;;5025106;28;20248;-51
2023/04/06 14:17:26;;;;;;;3.40;3.10;;;;;;;;;;5028084;28;20734;-50
2023/04/06 14:19:53;;;;;;;3.00;2.70;;;;;;;;;;5029734;28;20520;-51
2023/04/06 14:22:20;;;;;;;3.53;3.17;;;;;;;;;;5025212;28;20842;-51
2023/04/06 14:24:47;;;;;;;3.22;2.95;;;;;;;;;;5027105;28;20232;-51
2023/04/06 14:27:13;;;;;;;2.90;2.70;;;;;;;;;;5030581;28;20274;-50
2023/04/06 14:29:40;;;;;;;4.72;2.28;;;;;;;;;;5039295;28;20282;-50
2023/04/06 14:32:07;;;;;;;2.47;1.88;;;;;;;;;;5039856;28;20227;-50
2023/04/06 14:34:37;;;;;;;4.88;2.55;;;;;;;;;;5031691;28;20710;-50
2023/04/06 14:37:05;;;;;;;5.18;2.75;;;;;;;;;;5031771;28;20243;-51
2023/04/06 14:39:31;;;;;;;3.17;2.15;;;;;;;;;;5027021;28;20273;-50
2023/04/06 14:41:58;;;;;;;4.32;2.83;;;;;;;;;;5031455;28;20243;-50
2023/04/06 14:44:25;;;;;;;2.35;2.17;;;;;;;;;;5023116;28;22561;-50